Time;durP1;ratioP1;P1;durP2;ratioP2;P2;SDS_P1;SDS_P2;PMS_P1;PMS_P2;Temp;Humidity;BMP_temperature;BMP_pressure;BME280_temperature;BME280_humidity;BME280_pressure;Samples;Min_cycle;Max_cycle;Signal;HPM_P1;HPM_P2
2022/06/03 00:01:31;;;;;;;4.13;3.83;;;;;;;;;;4998935;28;20196;-74
2022/06/03 00:04:19;;;;;;;3.97;3.67;;;;;;;;;;5009059;28;20195;-74
2022/06/03 00:06:51;;;;;;;4.23;3.77;;;;;;;;;;4990330;28;20195;-74
2022/06/03 00:09:34;;;;;;;4.40;4.00;;;;;;;;;;5009932;28;20178;-74
2022/06/03 00:12:06;;;;;;;3.90;3.50;;;;;;;;;;5009319;28;20177;-74
2022/06/03 00:14:34;;;;;;;4.03;3.60;;;;;;;;;;5010058;28;20197;-74
2022/06/03 00:16:59;;;;;;;4.00;3.60;;;;;;;;;;5011337;28;20188;-74
2022/06/03 00:19:25;;;;;;;4.40;4.00;;;;;;;;;;5015024;28;20191;-74
2022/06/03 00:21:53;;;;;;;4.50;3.87;;;;;;;;;;4998427;28;21417;-74
2022/06/03 00:24:37;;;;;;;6.77;4.13;;;;;;;;;;5011532;28;20179;-74
2022/06/03 00:27:21;;;;;;;4.83;4.37;;;;;;;;;;5011377;28;20182;-73
2022/06/03 00:30:08;;;;;;;5.80;5.00;;;;;;;;;;5003796;28;20186;-74
2022/06/03 00:32:40;;;;;;;4.67;4.30;;;;;;;;;;5013843;28;20195;-74
2022/06/03 00:35:14;;;;;;;4.90;4.40;;;;;;;;;;5000007;28;20188;-74
2022/06/03 00:37:45;;;;;;;4.17;3.70;;;;;;;;;;5011799;28;20192;-74
2022/06/03 00:40:29;;;;;;;4.67;4.27;;;;;;;;;;5016299;28;20188;-74
2022/06/03 00:43:15;;;;;;;4.57;4.17;;;;;;;;;;5004464;28;20384;-73
2022/06/03 00:45:43;;;;;;;4.67;4.27;;;;;;;;;;4998424;28;20215;-73
2022/06/03 00:48:20;;;;;;;5.43;4.23;;;;;;;;;;4999007;28;20186;-74
2022/06/03 00:50:52;;;;;;;4.90;4.50;;;;;;;;;;5014931;28;20237;-74
2022/06/03 00:53:20;;;;;;;4.73;4.33;;;;;;;;;;5014756;28;20186;-74
2022/06/03 00:56:04;;;;;;;4.13;3.83;;;;;;;;;;4998975;28;20535;-74
2022/06/03 00:58:49;;;;;;;6.17;4.63;;;;;;;;;;5010920;28;20195;-74
2022/06/03 01:01:24;;;;;;;5.00;4.60;;;;;;;;;;4998569;28;20207;-74
2022/06/03 01:04:07;;;;;;;5.40;4.90;;;;;;;;;;5009897;28;20189;-73
2022/06/03 01:06:46;;;;;;;5.50;5.07;;;;;;;;;;5013852;28;20188;-74
2022/06/03 01:09:21;;;;;;;5.20;4.70;;;;;;;;;;5010628;28;20290;-73
2022/06/03 01:12:06;;;;;;;5.57;5.07;;;;;;;;;;5016353;28;20234;-73
2022/06/03 01:14:31;;;;;;;5.10;4.63;;;;;;;;;;5002931;28;20191;-73
2022/06/03 01:16:56;;;;;;;5.27;4.77;;;;;;;;;;5008877;28;20261;-74
2022/06/03 01:19:33;;;;;;;5.33;4.83;;;;;;;;;;5013348;28;20225;-73
2022/06/03 01:22:14;;;;;;;5.57;4.83;;;;;;;;;;5011074;28;20203;-73
2022/06/03 01:24:59;;;;;;;4.70;4.30;;;;;;;;;;4996956;28;20280;-74
2022/06/03 01:27:51;;;;;;;4.47;4.17;;;;;;;;;;4981480;28;20198;-74
2022/06/03 01:30:34;;;;;;;6.30;4.53;;;;;;;;;;5010810;28;20195;-73
2022/06/03 01:33:08;;;;;;;4.27;3.90;;;;;;;;;;4999400;28;20279;-74
2022/06/03 01:35:44;;;;;;;4.80;3.80;;;;;;;;;;4997375;28;20184;-73
2022/06/03 01:38:15;;;;;;;4.13;3.83;;;;;;;;;;5009693;28;20768;-74
2022/06/03 01:40:55;;;;;;;4.20;3.90;;;;;;;;;;4997846;28;20191;-73
2022/06/03 01:43:39;;;;;;;4.40;4.00;;;;;;;;;;5010539;28;20760;-73
2022/06/03 01:46:07;;;;;;;4.50;4.10;;;;;;;;;;5009929;28;20222;-74
2022/06/03 01:48:49;;;;;;;5.27;4.57;;;;;;;;;;5012262;28;20197;-74
2022/06/03 01:51:33;;;;;;;5.13;4.47;;;;;;;;;;4999060;28;20183;-74
2022/06/03 01:53:58;;;;;;;4.70;4.23;;;;;;;;;;5004887;28;20495;-73
2022/06/03 01:56:32;;;;;;;4.50;4.07;;;;;;;;;;5010357;28;20171;-73
2022/06/03 01:59:03;;;;;;;5.13;4.63;;;;;;;;;;5001659;28;20182;-73
2022/06/03 02:01:37;;;;;;;4.57;4.17;;;;;;;;;;5010080;28;20213;-74
2022/06/03 02:04:21;;;;;;;5.17;4.60;;;;;;;;;;5012419;28;20198;-73
2022/06/03 02:07:02;;;;;;;4.80;4.40;;;;;;;;;;5002352;28;20192;-73
2022/06/03 02:09:46;;;;;;;6.43;5.00;;;;;;;;;;5000386;28;20239;-74
2022/06/03 02:12:20;;;;;;;4.93;4.43;;;;;;;;;;5006005;28;20325;-74
2022/06/03 02:14:53;;;;;;;5.03;4.63;;;;;;;;;;5010076;28;20186;-74
2022/06/03 02:17:37;;;;;;;5.23;4.73;;;;;;;;;;5012793;28;20494;-74
2022/06/03 02:20:21;;;;;;;5.33;4.93;;;;;;;;;;5002642;28;20183;-74
2022/06/03 02:22:56;;;;;;;5.30;4.90;;;;;;;;;;5009281;28;20242;-74
2022/06/03 02:25:40;;;;;;;5.37;4.87;;;;;;;;;;5001313;28;20295;-73
2022/06/03 02:28:11;;;;;;;6.90;5.03;;;;;;;;;;5001476;28;20182;-74
2022/06/03 02:31:05;;;;;;;4.80;4.43;;;;;;;;;;5011775;28;20178;-74
2022/06/03 02:33:49;;;;;;;5.13;4.60;;;;;;;;;;4997129;28;20516;-74
2022/06/03 02:36:32;;;;;;;5.30;4.90;;;;;;;;;;5007443;28;20214;-74
2022/06/03 02:39:04;;;;;;;5.27;4.70;;;;;;;;;;5010887;28;20184;-74
2022/06/03 02:41:29;;;;;;;5.20;4.77;;;;;;;;;;5009188;28;20253;-73
2022/06/03 02:44:14;;;;;;;4.53;4.20;;;;;;;;;;4998448;28;20187;-74
2022/06/03 02:46:52;;;;;;;4.93;4.43;;;;;;;;;;5013741;28;20227;-74
2022/06/03 02:49:23;;;;;;;4.57;4.17;;;;;;;;;;4998642;28;20209;-74
2022/06/03 02:51:48;;;;;;;5.33;4.83;;;;;;;;;;5011928;28;20198;-74
2022/06/03 02:54:38;;;;;;;5.00;4.50;;;;;;;;;;5008874;28;20181;-74
2022/06/03 02:57:22;;;;;;;5.43;5.00;;;;;;;;;;4998118;28;20218;-74
2022/06/03 02:59:47;;;;;;;4.80;4.40;;;;;;;;;;5008282;28;20503;-74
2022/06/03 03:02:18;;;;;;;4.43;4.03;;;;;;;;;;5007880;28;20218;-74
2022/06/03 03:04:43;;;;;;;4.60;4.20;;;;;;;;;;5008788;28;20198;-74
2022/06/03 03:07:15;;;;;;;4.90;4.50;;;;;;;;;;5014031;28;20189;-73
2022/06/03 03:09:59;;;;;;;6.03;3.80;;;;;;;;;;5007805;28;20179;-74
2022/06/03 03:12:30;;;;;;;4.47;4.07;;;;;;;;;;5001860;28;20196;-74
2022/06/03 03:15:14;;;;;;;4.40;4.00;;;;;;;;;;5011673;28;20217;-74
2022/06/03 03:17:42;;;;;;;5.97;4.87;;;;;;;;;;5001930;28;20190;-74
2022/06/03 03:20:08;;;;;;;4.83;4.43;;;;;;;;;;4995716;28;20186;-74
2022/06/03 03:22:48;;;;;;;4.93;4.40;;;;;;;;;;5012550;28;20240;-73
2022/06/03 03:25:21;;;;;;;5.43;4.40;;;;;;;;;;5008016;28;20194;-74
2022/06/03 03:27:56;;;;;;;4.23;3.83;;;;;;;;;;5010081;28;20189;-74
2022/06/03 03:30:28;;;;;;;4.67;3.93;;;;;;;;;;5000334;28;20194;-74
2022/06/03 03:33:12;;;;;;;4.90;4.20;;;;;;;;;;4994492;28;20214;-74
2022/06/03 03:35:52;;;;;;;5.00;4.50;;;;;;;;;;4998019;28;20728;-74
2022/06/03 03:38:20;;;;;;;7.63;4.93;;;;;;;;;;5009537;28;20203;-73
2022/06/03 03:41:01;;;;;;;6.73;4.70;;;;;;;;;;5012365;28;20273;-74
2022/06/03 03:43:51;;;;;;;5.80;4.47;;;;;;;;;;5008252;28;20179;-74
2022/06/03 03:46:35;;;;;;;8.97;5.33;;;;;;;;;;4990876;28;20246;-74
2022/06/03 03:49:24;;;;;;;6.77;3.70;;;;;;;;;;4999520;28;21036;-74
2022/06/03 03:51:58;;;;;;;4.03;3.63;;;;;;;;;;4996627;28;20187;-74
2022/06/03 03:54:26;;;;;;;6.50;3.87;;;;;;;;;;5001968;28;20188;-74
2022/06/03 03:56:51;;;;;;;5.23;4.83;;;;;;;;;;5007727;28;20220;-74
2022/06/03 03:59:16;;;;;;;4.57;3.73;;;;;;;;;;4993731;28;20221;-74
2022/06/03 04:02:00;;;;;;;5.03;4.60;;;;;;;;;;4999880;28;20214;-74
2022/06/03 04:04:53;;;;;;;6.07;5.57;;;;;;;;;;5011450;28;20191;-73
2022/06/03 04:07:24;;;;;;;5.77;5.27;;;;;;;;;;5002929;28;20195;-74
2022/06/03 04:09:59;;;;;;;13.17;6.13;;;;;;;;;;5008978;28;20188;-73
2022/06/03 04:12:30;;;;;;;5.33;4.83;;;;;;;;;;5008989;28;20191;-74
2022/06/03 04:14:55;;;;;;;5.70;4.07;;;;;;;;;;5039672;28;20250;-74
2022/06/03 04:17:29;;;;;;;5.80;5.30;;;;;;;;;;5025049;28;20191;-73
2022/06/03 04:20:00;;;;;;;6.60;5.67;;;;;;;;;;5017262;28;20186;-74
2022/06/03 04:22:53;;;;;;;4.60;4.20;;;;;;;;;;5010154;28;20211;-74
2022/06/03 04:25:31;;;;;;;5.40;4.90;;;;;;;;;;5010108;28;20187;-74
2022/06/03 04:28:23;;;;;;;5.27;4.77;;;;;;;;;;5021387;28;20172;-75
2022/06/03 04:31:08;;;;;;;4.93;4.53;;;;;;;;;;5009791;28;20183;-74
2022/06/03 04:34:09;;;;;;;8.33;6.63;;;;;;;;;;5026936;28;20203;-73
2022/06/03 04:36:40;;;;;;;7.97;5.80;;;;;;;;;;4950490;28;20217;-74
2022/06/03 04:39:24;;;;;;;6.43;5.83;;;;;;;;;;4998481;28;20187;-74
2022/06/03 04:42:07;;;;;;;6.20;5.60;;;;;;;;;;5025933;28;20205;-73
2022/06/03 04:44:35;;;;;;;6.10;5.60;;;;;;;;;;5009588;28;20246;-74
2022/06/03 04:47:19;;;;;;;7.37;6.20;;;;;;;;;;5029665;28;20223;-74
2022/06/03 04:50:03;;;;;;;7.67;6.93;;;;;;;;;;5019471;28;20219;-74
2022/06/03 04:52:47;;;;;;;5.27;4.80;;;;;;;;;;5009568;28;20179;-74
2022/06/03 04:55:25;;;;;;;5.30;4.67;;;;;;;;;;5025494;28;20191;-73
2022/06/03 04:58:09;;;;;;;5.33;4.87;;;;;;;;;;5011920;28;20179;-74
2022/06/03 05:00:49;;;;;;;5.63;5.23;;;;;;;;;;5008494;28;20181;-74
2022/06/03 05:03:22;;;;;;;6.20;5.70;;;;;;;;;;5021229;28;20239;-84
2022/06/03 05:06:06;;;;;;;5.67;5.17;;;;;;;;;;5009565;28;20168;-73
2022/06/03 05:08:45;;;;;;;6.37;5.20;;;;;;;;;;5007590;28;20172;-74
2022/06/03 05:11:29;;;;;;;7.47;6.73;;;;;;;;;;5011752;28;20179;-74
2022/06/03 05:14:13;;;;;;;5.60;5.10;;;;;;;;;;5023876;28;20274;-74
2022/06/03 05:16:57;;;;;;;6.13;5.47;;;;;;;;;;5020847;28;20223;-74
2022/06/03 05:19:29;;;;;;;4.70;4.30;;;;;;;;;;5021017;28;20228;-73
2022/06/03 05:22:01;;;;;;;5.83;5.33;;;;;;;;;;5011617;28;20189;-74
2022/06/03 05:24:45;;;;;;;5.00;4.50;;;;;;;;;;5026592;28;20176;-74
2022/06/03 05:27:29;;;;;;;5.87;5.30;;;;;;;;;;5005947;28;20186;-74
2022/06/03 05:30:03;;;;;;;5.33;4.93;;;;;;;;;;5023170;28;20180;-74
2022/06/03 05:32:43;;;;;;;4.80;4.40;;;;;;;;;;5027899;28;20232;-74
2022/06/03 05:35:11;;;;;;;4.97;4.57;;;;;;;;;;5009767;28;20279;-74
2022/06/03 05:37:46;;;;;;;4.83;4.43;;;;;;;;;;5011846;28;20180;-74
2022/06/03 05:40:14;;;;;;;4.37;4.07;;;;;;;;;;5009619;28;20186;-74
2022/06/03 05:42:46;;;;;;;4.73;4.30;;;;;;;;;;5015856;28;20203;-74
2022/06/03 05:45:15;;;;;;;4.77;4.37;;;;;;;;;;5001654;28;20213;-74
2022/06/03 05:47:44;;;;;;;5.63;4.57;;;;;;;;;;5009432;28;20248;-73
2022/06/03 05:50:14;;;;;;;5.17;4.20;;;;;;;;;;5005052;28;20197;-74
2022/06/03 05:52:49;;;;;;;6.23;4.50;;;;;;;;;;5004252;28;20339;-74
2022/06/03 05:55:20;;;;;;;5.17;4.40;;;;;;;;;;5012386;28;20177;-73
2022/06/03 05:57:53;;;;;;;4.30;3.90;;;;;;;;;;5023479;28;20197;-73
2022/06/03 06:00:33;;;;;;;4.00;3.70;;;;;;;;;;5036932;28;20189;-74
2022/06/03 06:03:17;;;;;;;5.03;4.60;;;;;;;;;;5007695;28;20212;-73
2022/06/03 06:05:55;;;;;;;4.70;4.30;;;;;;;;;;5027583;28;20203;-74
2022/06/03 06:08:29;;;;;;;4.70;4.00;;;;;;;;;;5036245;28;20211;-74
2022/06/03 06:11:16;;;;;;;4.53;4.03;;;;;;;;;;5044856;28;20170;-74
2022/06/03 06:13:45;;;;;;;4.07;3.67;;;;;;;;;;5007191;28;20214;-74
2022/06/03 06:16:10;;;;;;;7.23;3.90;;;;;;;;;;5032932;28;20506;-74
2022/06/03 06:18:36;;;;;;;5.50;5.00;;;;;;;;;;5011306;28;20174;-74
2022/06/03 06:21:05;;;;;;;5.03;4.17;;;;;;;;;;5011385;28;20176;-74
2022/06/03 06:23:36;;;;;;;3.90;3.60;;;;;;;;;;5039454;28;20201;-74
2022/06/03 06:26:13;;;;;;;4.20;3.90;;;;;;;;;;5041847;28;20199;-74
2022/06/03 06:28:45;;;;;;;3.43;3.13;;;;;;;;;;5035235;28;20264;-74
2022/06/03 06:31:23;;;;;;;3.87;3.57;;;;;;;;;;5011993;28;20182;-74
2022/06/03 06:34:00;;;;;;;4.07;3.73;;;;;;;;;;5017990;28;20181;-74
2022/06/03 06:36:40;;;;;;;4.33;4.03;;;;;;;;;;5010799;28;20222;-74
2022/06/03 06:39:09;;;;;;;4.00;3.70;;;;;;;;;;5009687;28;20174;-74
2022/06/03 06:41:35;;;;;;;4.30;3.47;;;;;;;;;;5011247;28;20231;-74
2022/06/03 06:44:07;;;;;;;3.70;3.40;;;;;;;;;;5005386;28;20181;-73
2022/06/03 06:46:51;;;;;;;3.77;3.47;;;;;;;;;;5004607;28;20226;-74
2022/06/03 06:49:23;;;;;;;3.63;3.40;;;;;;;;;;5022741;28;20200;-75
2022/06/03 06:51:51;;;;;;;4.67;3.70;;;;;;;;;;5030512;28;20190;-74
2022/06/03 06:54:35;;;;;;;3.50;3.20;;;;;;;;;;5014213;28;20204;-74
2022/06/03 06:57:01;;;;;;;3.67;2.93;;;;;;;;;;5027550;28;20263;-74
2022/06/03 06:59:31;;;;;;;4.30;3.90;;;;;;;;;;5016918;28;20396;-74
2022/06/03 07:02:03;;;;;;;3.60;3.37;;;;;;;;;;5022357;28;20229;-74
2022/06/03 07:04:31;;;;;;;3.67;3.37;;;;;;;;;;5026290;28;20167;-74
2022/06/03 07:07:00;;;;;;;4.27;3.57;;;;;;;;;;5013861;28;20179;-74
2022/06/03 07:09:36;;;;;;;3.70;3.50;;;;;;;;;;5016091;28;20182;-74
2022/06/03 07:12:05;;;;;;;4.60;4.30;;;;;;;;;;5012994;28;20188;-74
2022/06/03 07:14:35;;;;;;;3.53;3.20;;;;;;;;;;5014977;28;20185;-74
2022/06/03 07:20:29;;;;;;;3.60;3.30;;;;;;;;;;5025292;28;20181;-74
2022/06/03 07:22:56;;;;;;;3.77;3.47;;;;;;;;;;5025944;28;20192;-74
2022/06/03 07:25:21;;;;;;;5.00;3.47;;;;;;;;;;5011580;28;20174;-74
2022/06/03 07:27:52;;;;;;;3.80;3.50;;;;;;;;;;5016045;28;20178;-75
2022/06/03 07:30:19;;;;;;;4.27;3.87;;;;;;;;;;5004975;28;20260;-74
2022/06/03 07:32:47;;;;;;;4.33;3.80;;;;;;;;;;5027756;28;20198;-74
2022/06/03 07:35:24;;;;;;;4.33;4.03;;;;;;;;;;5027798;28;20183;-74
2022/06/03 07:38:15;;;;;;;4.23;3.93;;;;;;;;;;5004654;28;20190;-74
2022/06/03 07:40:55;;;;;;;4.53;4.13;;;;;;;;;;5024979;28;20207;-75
2022/06/03 07:43:28;;;;;;;4.30;3.90;;;;;;;;;;5027881;28;20235;-75
2022/06/03 07:45:56;;;;;;;7.40;4.30;;;;;;;;;;5004770;28;20242;-74
2022/06/03 07:48:23;;;;;;;3.90;3.60;;;;;;;;;;5014257;28;20199;-74
2022/06/03 07:50:48;;;;;;;4.17;3.77;;;;;;;;;;5012537;28;20196;-74
2022/06/03 07:53:21;;;;;;;4.23;3.90;;;;;;;;;;5024914;28;20191;-74
2022/06/03 07:55:54;;;;;;;5.03;4.63;;;;;;;;;;5031214;28;20209;-75
2022/06/03 07:58:20;;;;;;;3.83;3.43;;;;;;;;;;5012568;28;20215;-75
2022/06/03 08:00:46;;;;;;;3.87;3.67;;;;;;;;;;5014975;28;20193;-75
2022/06/03 08:03:16;;;;;;;4.10;3.50;;;;;;;;;;5013040;28;20209;-74
2022/06/03 08:05:46;;;;;;;3.63;3.33;;;;;;;;;;5031485;28;20234;-75
2022/06/03 08:10:58;;;;;;;4.30;3.90;;;;;;;;;;5029716;28;20189;-74
2022/06/03 08:13:44;;;;;;;6.27;3.77;;;;;;;;;;5014395;28;20211;-75
2022/06/03 08:16:21;;;;;;;3.50;3.30;;;;;;;;;;5023920;28;20202;-75
2022/06/03 08:18:46;;;;;;;3.57;3.00;;;;;;;;;;5009044;28;20236;-74
2022/06/03 08:21:25;;;;;;;3.40;3.13;;;;;;;;;;5023929;28;20202;-74
2022/06/03 08:23:51;;;;;;;4.60;4.07;;;;;;;;;;5014843;28;20185;-75
2022/06/03 08:26:20;;;;;;;4.23;3.83;;;;;;;;;;5028431;28;20234;-74
2022/06/03 08:28:47;;;;;;;3.90;3.43;;;;;;;;;;5022217;28;20173;-74
2022/06/03 08:31:13;;;;;;;3.88;3.58;;;;;;;;;;5033368;28;20255;-74
2022/06/03 08:33:47;;;;;;;3.67;3.30;;;;;;;;;;5021672;28;20268;-75
2022/06/03 08:36:18;;;;;;;3.17;2.97;;;;;;;;;;5006880;28;20183;-74
2022/06/03 08:38:48;;;;;;;3.28;3.00;;;;;;;;;;5014681;28;20178;-73
2022/06/03 08:41:32;;;;;;;3.80;3.60;;;;;;;;;;5012840;28;20185;-74
2022/06/03 08:44:16;;;;;;;4.70;3.88;;;;;;;;;;5027858;28;20189;-74
2022/06/03 08:46:56;;;;;;;3.85;3.42;;;;;;;;;;5027091;28;20227;-74
2022/06/03 08:49:25;;;;;;;3.60;3.30;;;;;;;;;;5010258;28;20234;-74
2022/06/03 08:51:52;;;;;;;5.45;4.25;;;;;;;;;;5006680;28;20172;-74
2022/06/03 08:54:21;;;;;;;3.50;3.20;;;;;;;;;;5001809;28;20484;-74
2022/06/03 08:56:48;;;;;;;3.55;3.30;;;;;;;;;;5008078;28;20175;-74
2022/06/03 08:59:18;;;;;;;3.60;2.95;;;;;;;;;;5011300;28;20175;-74
2022/06/03 09:01:47;;;;;;;3.55;3.25;;;;;;;;;;5009663;28;20200;-74
2022/06/03 09:04:12;;;;;;;4.65;3.78;;;;;;;;;;5011096;28;20253;-74
2022/06/03 09:06:58;;;;;;;3.78;3.35;;;;;;;;;;5000506;28;20203;-74
2022/06/03 09:09:32;;;;;;;3.00;2.80;;;;;;;;;;5011888;28;20176;-74
2022/06/03 09:12:00;;;;;;;3.15;2.95;;;;;;;;;;5008350;28;20183;-74
2022/06/03 09:14:27;;;;;;;4.53;3.97;;;;;;;;;;5013258;28;20183;-74
2022/06/03 09:16:54;;;;;;;3.58;3.28;;;;;;;;;;5009523;28;20202;-74
2022/06/03 09:19:34;;;;;;;4.65;3.63;;;;;;;;;;5001451;28;20257;-74
2022/06/03 09:22:06;;;;;;;4.53;3.30;;;;;;;;;;4990795;28;20215;-74
2022/06/03 09:24:33;;;;;;;3.20;3.00;;;;;;;;;;5009554;28;20237;-74
2022/06/03 09:26:59;;;;;;;3.85;3.47;;;;;;;;;;4993338;28;20180;-74
2022/06/03 09:29:25;;;;;;;4.57;3.80;;;;;;;;;;4991418;28;20189;-74
2022/06/03 09:31:59;;;;;;;3.30;3.10;;;;;;;;;;5012012;28;20180;-74
2022/06/03 09:34:45;;;;;;;3.65;3.40;;;;;;;;;;4992686;28;20191;-74
2022/06/03 09:37:30;;;;;;;3.72;3.42;;;;;;;;;;5013933;28;20273;-74
2022/06/03 09:39:57;;;;;;;4.15;3.33;;;;;;;;;;5009531;28;20246;-74
2022/06/03 09:42:23;;;;;;;3.30;3.00;;;;;;;;;;4993518;28;20249;-74
2022/06/03 09:44:50;;;;;;;4.07;3.03;;;;;;;;;;5010682;28;20179;-74
2022/06/03 09:47:18;;;;;;;3.70;3.35;;;;;;;;;;5033829;28;20280;-74
2022/06/03 09:49:47;;;;;;;3.90;3.55;;;;;;;;;;5030626;28;20195;-74
2022/06/03 09:52:16;;;;;;;4.05;3.28;;;;;;;;;;5010330;28;20179;-74
2022/06/03 09:54:43;;;;;;;4.53;3.35;;;;;;;;;;5016944;28;20269;-74
2022/06/03 09:57:11;;;;;;;4.47;3.35;;;;;;;;;;5014534;28;20175;-74
2022/06/03 09:59:37;;;;;;;3.35;3.15;;;;;;;;;;5011080;28;20191;-74
2022/06/03 10:02:05;;;;;;;5.10;3.50;;;;;;;;;;5010220;28;20206;-74
2022/06/03 10:04:30;;;;;;;3.75;3.40;;;;;;;;;;5014057;28;20182;-74
2022/06/03 10:06:59;;;;;;;4.18;3.88;;;;;;;;;;5004900;28;20175;-74
2022/06/03 10:17:41;;;;;;;4.53;3.22;;;;;;;;;;5024277;28;20186;-74
2022/06/03 10:20:08;;;;;;;3.47;3.28;;;;;;;;;;5005617;28;20170;-74
2022/06/03 10:22:34;;;;;;;3.60;3.25;;;;;;;;;;5020677;28;20250;-73
2022/06/03 10:24:59;;;;;;;3.50;3.20;;;;;;;;;;5033341;28;20203;-74
2022/06/03 10:27:26;;;;;;;3.38;3.08;;;;;;;;;;5023854;28;20178;-74
2022/06/03 10:29:51;;;;;;;6.30;3.28;;;;;;;;;;5034092;28;20178;-74
2022/06/03 10:32:19;;;;;;;3.13;2.92;;;;;;;;;;5031220;28;20192;-74
2022/06/03 10:34:44;;;;;;;3.97;3.58;;;;;;;;;;5012801;28;20174;-74
2022/06/03 10:37:12;;;;;;;4.35;4.05;;;;;;;;;;5018270;28;20244;-74
2022/06/03 10:39:40;;;;;;;5.32;4.82;;;;;;;;;;5009057;28;20499;-74
2022/06/03 10:42:05;;;;;;;6.53;5.10;;;;;;;;;;5015679;28;20313;-74
2022/06/03 10:44:36;;;;;;;5.45;5.03;;;;;;;;;;5005977;28;20249;-74
2022/06/03 10:47:04;;;;;;;5.00;4.60;;;;;;;;;;5009569;28;20227;-74
2022/06/03 10:49:31;;;;;;;5.53;4.68;;;;;;;;;;5009063;28;20218;-74
2022/06/03 11:01:13;;;;;;;5.50;4.97;;;;;;;;;;5008642;28;20198;-73
2022/06/03 11:03:20;;;;;;;6.75;4.72;;;;;;;;;;4998308;28;20222;-73
2022/06/03 11:05:46;;;;;;;6.00;5.03;;;;;;;;;;5007464;28;20183;-73
2022/06/03 11:08:12;;;;;;;5.13;4.72;;;;;;;;;;5005834;28;20190;-73
2022/06/03 11:10:46;;;;;;;5.72;5.20;;;;;;;;;;5008251;28;20168;-73
2022/06/03 11:13:13;;;;;;;4.88;4.47;;;;;;;;;;5011168;28;20179;-73
2022/06/03 11:15:42;;;;;;;7.32;5.00;;;;;;;;;;5004167;28;20484;-73
2022/06/03 11:18:14;;;;;;;6.22;5.30;;;;;;;;;;5005655;28;20175;-73
2022/06/03 11:20:40;;;;;;;6.47;5.15;;;;;;;;;;5006033;28;20523;-73
2022/06/03 11:23:07;;;;;;;6.47;5.88;;;;;;;;;;4993780;28;20291;-75
2022/06/03 11:25:35;;;;;;;5.95;5.55;;;;;;;;;;4998741;28;20358;-75
2022/06/03 11:28:03;;;;;;;8.27;6.18;;;;;;;;;;5021485;28;20257;-75
2022/06/03 11:30:31;;;;;;;10.55;6.22;;;;;;;;;;5010543;28;20207;-74
2022/06/03 11:32:59;;;;;;;8.95;6.22;;;;;;;;;;5002667;28;20186;-74
2022/06/03 11:35:29;;;;;;;7.72;6.15;;;;;;;;;;5025404;28;20206;-74
2022/06/03 11:37:57;;;;;;;8.00;6.70;;;;;;;;;;5004084;28;20178;-74
2022/06/03 11:40:32;;;;;;;7.85;7.15;;;;;;;;;;5026078;28;20207;-74
2022/06/03 11:43:07;;;;;;;7.60;6.97;;;;;;;;;;5009896;28;20203;-74
2022/06/03 11:46:01;;;;;;;8.82;8.13;;;;;;;;;;4996868;28;20257;-74
2022/06/03 11:48:46;;;;;;;8.85;6.78;;;;;;;;;;4993653;28;20294;-74
2022/06/03 11:51:12;;;;;;;8.18;7.47;;;;;;;;;;5013587;28;20209;-74
2022/06/03 11:53:39;;;;;;;8.63;7.82;;;;;;;;;;5030510;28;20179;-74
2022/06/03 11:56:06;;;;;;;8.68;7.80;;;;;;;;;;5026189;28;20246;-75
2022/06/03 11:58:40;;;;;;;8.35;7.47;;;;;;;;;;5005830;28;20213;-74
2022/06/03 12:01:08;;;;;;;8.65;7.85;;;;;;;;;;5023853;28;20176;-74
2022/06/03 12:03:42;;;;;;;9.75;8.88;;;;;;;;;;5026942;28;20238;-74
2022/06/03 12:06:16;;;;;;;8.98;8.18;;;;;;;;;;5005567;28;20183;-74
2022/06/03 12:08:41;;;;;;;11.23;10.23;;;;;;;;;;5029580;28;20183;-74
2022/06/03 12:13:14;;;;;;;10.13;9.13;;;;;;;;;;5032046;28;20174;-74
2022/06/03 12:14:12;;;;;;;9.98;9.10;;;;;;;;;;5033173;28;20273;-74
2022/06/03 12:16:52;;;;;;;11.10;10.10;;;;;;;;;;5025194;28;20172;-74
2022/06/03 12:19:34;;;;;;;8.68;8.00;;;;;;;;;;5015187;28;20182;-74
2022/06/03 12:22:16;;;;;;;8.68;7.90;;;;;;;;;;5014369;28;20210;-74
2022/06/03 12:24:42;;;;;;;10.25;9.32;;;;;;;;;;5038299;28;20171;-74
2022/06/03 12:27:37;;;;;;;10.00;9.13;;;;;;;;;;5009931;28;20532;-74
2022/06/03 12:30:09;;;;;;;9.68;8.88;;;;;;;;;;4997053;28;20249;-74
2022/06/03 12:32:36;;;;;;;10.57;9.63;;;;;;;;;;5045330;28;20218;-74
2022/06/03 12:35:20;;;;;;;10.35;9.45;;;;;;;;;;5014430;28;20206;-74
2022/06/03 12:37:45;;;;;;;9.60;8.70;;;;;;;;;;5020804;28;20206;-74
2022/06/03 12:40:21;;;;;;;11.43;9.60;;;;;;;;;;5028212;28;20288;-74
2022/06/03 12:42:47;;;;;;;11.60;9.98;;;;;;;;;;5004289;28;20203;-73
2022/06/03 12:45:15;;;;;;;13.60;9.68;;;;;;;;;;5014683;28;20176;-74
2022/06/03 12:47:50;;;;;;;15.00;10.65;;;;;;;;;;5014472;28;20218;-74
2022/06/03 12:50:26;;;;;;;11.52;9.43;;;;;;;;;;5031213;28;20548;-74
2022/06/03 12:52:59;;;;;;;10.32;9.43;;;;;;;;;;5015698;28;20227;-74
2022/06/03 12:55:25;;;;;;;12.07;10.32;;;;;;;;;;5029777;28;20178;-73
2022/06/03 12:57:54;;;;;;;10.68;9.68;;;;;;;;;;5011153;28;20264;-74
2022/06/03 13:00:19;;;;;;;10.65;9.65;;;;;;;;;;5015861;28;20286;-73
2022/06/03 13:02:51;;;;;;;10.27;9.48;;;;;;;;;;5017846;28;20297;-74
2022/06/03 13:05:22;;;;;;;9.80;8.80;;;;;;;;;;5015195;28;20186;-74
2022/06/03 13:07:58;;;;;;;10.82;9.52;;;;;;;;;;5007658;28;20182;-73
2022/06/03 13:10:26;;;;;;;9.07;8.27;;;;;;;;;;5004718;28;20220;-74
2022/06/03 13:12:52;;;;;;;10.45;9.48;;;;;;;;;;5024995;28;20201;-80
2022/06/03 13:15:20;;;;;;;9.75;8.82;;;;;;;;;;5027819;28;20186;-73
2022/06/03 13:17:55;;;;;;;9.38;8.52;;;;;;;;;;5012324;28;20251;-73
2022/06/03 13:20:43;;;;;;;10.95;9.98;;;;;;;;;;5024948;28;20189;-73
2022/06/03 13:23:27;;;;;;;11.60;10.40;;;;;;;;;;5008764;28;20329;-74
2022/06/03 13:25:54;;;;;;;11.10;10.10;;;;;;;;;;5030111;28;20191;-73
2022/06/03 13:28:38;;;;;;;10.98;9.90;;;;;;;;;;5027800;28;20187;-73
2022/06/03 13:31:06;;;;;;;12.43;10.10;;;;;;;;;;5020735;28;20210;-74
2022/06/03 13:33:31;;;;;;;10.05;9.27;;;;;;;;;;5020332;28;20175;-73
2022/06/03 13:35:58;;;;;;;10.93;10.02;;;;;;;;;;5019508;28;20180;-76
2022/06/03 13:38:27;;;;;;;10.52;9.63;;;;;;;;;;5012751;28;20183;-73
2022/06/03 13:44:03;;;;;;;11.07;10.20;;;;;;;;;;5030692;28;20252;-73
2022/06/03 13:46:30;;;;;;;10.70;9.80;;;;;;;;;;5001896;28;20228;-73
2022/06/03 13:49:00;;;;;;;9.60;8.90;;;;;;;;;;5006423;28;20186;-73
2022/06/03 13:51:47;;;;;;;9.30;8.60;;;;;;;;;;5014327;28;20229;-73
2022/06/03 13:54:21;;;;;;;8.85;8.02;;;;;;;;;;5009600;28;20271;-74
2022/06/03 13:56:53;;;;;;;9.30;8.50;;;;;;;;;;5018261;28;20199;-73
2022/06/03 13:59:18;;;;;;;8.90;7.93;;;;;;;;;;5029747;28;20237;-73
2022/06/03 14:01:45;;;;;;;8.93;8.15;;;;;;;;;;5017329;28;20181;-73
2022/06/03 14:04:18;;;;;;;10.98;8.23;;;;;;;;;;5010028;28;20258;-74
2022/06/03 14:06:52;;;;;;;9.18;8.38;;;;;;;;;;5006548;28;20180;-73
2022/06/03 14:09:36;;;;;;;9.73;8.85;;;;;;;;;;5011257;28;20186;-73
2022/06/03 14:12:07;;;;;;;9.00;8.27;;;;;;;;;;5032706;28;20218;-73
2022/06/03 14:14:51;;;;;;;8.48;7.78;;;;;;;;;;5013132;28;20208;-74
2022/06/03 14:17:28;;;;;;;7.45;6.85;;;;;;;;;;5015681;28;20191;-73
2022/06/03 14:20:13;;;;;;;7.63;6.93;;;;;;;;;;5026404;28;20179;-73
2022/06/03 14:22:53;;;;;;;8.70;6.78;;;;;;;;;;5017412;28;20211;-73
2022/06/03 14:25:29;;;;;;;6.07;5.65;;;;;;;;;;5009510;28;20190;-73
2022/06/03 14:28:06;;;;;;;6.90;6.20;;;;;;;;;;4999970;28;20171;-73
2022/06/03 14:30:38;;;;;;;7.20;6.50;;;;;;;;;;5014395;28;20187;-74
2022/06/03 14:33:04;;;;;;;6.50;5.90;;;;;;;;;;5010573;28;20178;-73
2022/06/03 14:35:38;;;;;;;7.47;6.28;;;;;;;;;;5005644;28;20283;-73
2022/06/03 14:38:13;;;;;;;6.57;5.97;;;;;;;;;;5009726;28;20289;-73
2022/06/03 14:40:40;;;;;;;7.53;6.82;;;;;;;;;;5020972;28;20222;-73
2022/06/03 14:43:07;;;;;;;8.95;7.82;;;;;;;;;;5000134;28;20209;-73
2022/06/03 14:45:35;;;;;;;6.95;6.35;;;;;;;;;;5005134;28;20175;-74
2022/06/03 14:48:03;;;;;;;7.30;6.63;;;;;;;;;;5030365;28;20179;-73
2022/06/03 14:50:31;;;;;;;7.32;6.72;;;;;;;;;;5008334;28;20195;-73
2022/06/03 14:52:58;;;;;;;7.05;6.43;;;;;;;;;;5012996;28;20179;-73
2022/06/03 14:55:27;;;;;;;8.40;7.68;;;;;;;;;;5006125;28;20178;-73
2022/06/03 14:57:55;;;;;;;6.40;5.80;;;;;;;;;;5026251;28;20189;-73
2022/06/03 15:00:39;;;;;;;10.45;7.35;;;;;;;;;;5027549;28;20179;-73
2022/06/03 15:03:13;;;;;;;6.00;5.47;;;;;;;;;;5028175;28;20209;-73
2022/06/03 15:05:45;;;;;;;6.13;5.63;;;;;;;;;;5021675;28;20188;-73
2022/06/03 15:08:13;;;;;;;6.93;6.30;;;;;;;;;;5011808;28;20171;-74
2022/06/03 15:10:43;;;;;;;6.63;5.95;;;;;;;;;;5009518;28;20178;-76
2022/06/03 15:13:20;;;;;;;6.65;6.05;;;;;;;;;;5012353;28;20186;-75
2022/06/03 15:15:48;;;;;;;6.68;5.97;;;;;;;;;;5026937;28;20175;-76
2022/06/03 15:18:15;;;;;;;6.97;6.38;;;;;;;;;;5016461;28;20217;-75
2022/06/03 15:20:59;;;;;;;7.13;6.55;;;;;;;;;;5014660;28;20179;-73
2022/06/03 15:23:24;;;;;;;8.35;6.50;;;;;;;;;;5028932;28;20214;-76
2022/06/03 15:25:54;;;;;;;6.38;5.80;;;;;;;;;;5019020;28;20174;-73
2022/06/03 15:28:20;;;;;;;6.90;6.25;;;;;;;;;;5011302;28;20187;-73
2022/06/03 15:31:02;;;;;;;6.75;6.05;;;;;;;;;;5002128;28;20439;-74
2022/06/03 15:33:27;;;;;;;6.30;5.80;;;;;;;;;;5031681;28;20253;-73
2022/06/03 15:36:00;;;;;;;6.07;5.50;;;;;;;;;;5033198;28;20313;-73
2022/06/03 15:38:29;;;;;;;6.15;5.65;;;;;;;;;;5019395;28;20191;-73
2022/06/03 15:40:56;;;;;;;6.53;5.68;;;;;;;;;;5025217;28;20186;-73
2022/06/03 15:43:26;;;;;;;6.63;6.13;;;;;;;;;;5019268;28;20213;-73
2022/06/03 15:45:52;;;;;;;6.57;5.97;;;;;;;;;;5012933;28;20306;-73